createdAt,value
2023-03-12T00:01:50.507Z,97948.44
2023-03-12T00:04:36.567Z,97963.69
2023-03-12T00:07:22.501Z,97958.28
2023-03-12T00:10:08.595Z,97955.69
2023-03-12T00:12:54.311Z,97959.56
2023-03-12T00:15:39.795Z,97966.28
2023-03-12T00:18:25.309Z,97971.19
2023-03-12T00:21:10.986Z,97885.72
2023-03-12T00:23:56.527Z,97965.31
2023-03-12T00:26:42.254Z,97951.28
2023-03-12T00:29:28.376Z,97971.94
2023-03-12T00:32:14.550Z,97943.41
2023-03-12T00:34:59.747Z,97953.38
2023-03-12T00:37:45.458Z,97963.72
2023-03-12T00:40:31.161Z,97970.88
2023-03-12T00:43:17.182Z,97920.31
2023-03-12T00:46:02.662Z,97963.13
2023-03-12T00:48:48.211Z,97931.91
2023-03-12T00:51:33.651Z,97948.22
2023-03-12T00:54:18.823Z,97962.66
2023-03-12T00:57:04.334Z,97956.44
2023-03-12T00:59:50.512Z,97950.44
2023-03-12T01:02:36.996Z,97965.13
2023-03-12T01:05:24.094Z,97955.03
2023-03-12T01:08:10.874Z,97928.34
2023-03-12T01:10:56.435Z,97953.13
2023-03-12T01:13:43.389Z,97947.38
2023-03-12T01:16:29.604Z,97944.09
2023-03-12T01:19:15.066Z,97952.94
2023-03-12T01:22:00.287Z,97953.19
2023-03-12T01:24:46.473Z,97961.28
2023-03-12T01:27:31.931Z,97919.00
2023-03-12T01:30:17.656Z,97950.59
2023-03-12T01:33:03.383Z,97956.44
2023-03-12T01:35:49.216Z,97938.34
2023-03-12T01:38:35.295Z,97950.09
2023-03-12T01:41:21.944Z,97956.69
2023-03-12T01:44:08.141Z,97944.69
2023-03-12T01:46:53.742Z,97937.66
2023-03-12T01:49:42.319Z,97944.47
2023-03-12T01:52:32.292Z,97923.09
2023-03-12T01:55:18.690Z,97948.69
2023-03-12T01:58:07.900Z,97939.63
2023-03-12T02:00:53.891Z,97946.00
2023-03-12T02:03:39.760Z,97942.09
2023-03-12T02:06:36.974Z,97939.28
2023-03-12T02:09:22.430Z,97945.13
2023-03-12T02:12:09.162Z,97911.81
2023-03-12T02:14:54.651Z,97937.38
2023-03-12T02:17:40.558Z,97934.78
2023-03-12T02:20:39.844Z,97923.41
2023-03-12T02:23:56.499Z,97935.38
2023-03-12T02:26:43.059Z,97938.34
2023-03-12T02:29:31.840Z,97930.59
2023-03-12T02:32:23.320Z,97939.97
2023-03-12T02:35:10.075Z,97936.69
2023-03-12T02:37:56.820Z,97944.44
2023-03-12T02:40:47.578Z,97949.94
2023-03-12T02:43:33.054Z,97868.63
2023-03-12T02:46:18.473Z,97951.09
2023-03-12T02:49:04.378Z,97946.50
2023-03-12T02:51:50.022Z,97939.00
2023-03-12T02:54:35.645Z,97932.84
2023-03-12T02:57:20.948Z,97939.34
2023-03-12T03:00:10.812Z,97920.66
2023-03-12T03:02:57.999Z,97919.81
2023-03-12T03:05:43.459Z,97937.06
2023-03-12T03:08:28.598Z,97930.81
2023-03-12T03:11:14.024Z,97928.97
2023-03-12T03:13:59.464Z,97932.13
2023-03-12T03:16:45.020Z,97935.63
2023-03-12T03:19:30.721Z,97936.47
2023-03-12T03:22:17.460Z,97919.31
2023-03-12T03:25:03.247Z,97940.09
2023-03-12T03:27:49.012Z,97936.81
2023-03-12T03:30:34.547Z,97936.72
2023-03-12T03:33:21.896Z,97924.38
2023-03-12T03:36:08.712Z,97935.09
2023-03-12T03:38:58.313Z,97938.41
2023-03-12T03:41:43.828Z,97943.19
2023-03-12T03:44:29.230Z,97908.66
2023-03-12T03:47:14.804Z,97933.06
2023-03-12T03:50:00.023Z,97939.06
2023-03-12T03:52:45.440Z,97923.41
2023-03-12T03:55:31.326Z,97938.81
2023-03-12T03:58:16.710Z,97938.81
2023-03-12T04:01:02.520Z,97938.91
2023-03-12T04:03:47.945Z,97945.59
2023-03-12T04:06:33.255Z,97904.97
2023-03-12T04:09:18.839Z,97941.97
2023-03-12T04:12:04.565Z,97952.06
2023-03-12T04:14:50.271Z,97938.06
2023-03-12T04:17:35.616Z,97939.72
2023-03-12T04:20:21.487Z,97948.41
2023-03-12T04:23:07.082Z,97934.63
2023-03-12T04:25:52.140Z,97937.13
2023-03-12T04:28:38.198Z,97940.28
2023-03-12T04:31:23.496Z,97936.97
2023-03-12T04:34:11.464Z,97932.78
2023-03-12T04:37:01.489Z,97901.75
2023-03-12T04:39:46.851Z,97922.16
2023-03-12T04:42:35.242Z,97927.34
2023-03-12T04:45:20.782Z,97923.09
2023-03-12T04:48:06.264Z,97917.81
2023-03-12T04:50:51.514Z,97921.22
2023-03-12T04:53:37.114Z,97907.25
2023-03-12T04:56:22.922Z,97922.16
2023-03-12T04:59:08.071Z,97918.84
2023-03-12T05:01:53.314Z,97846.59
2023-03-12T05:04:43.338Z,97919.31
2023-03-12T05:07:28.849Z,97925.69
2023-03-12T05:10:13.999Z,97926.63
2023-03-12T05:12:59.332Z,97869.47
2023-03-12T05:15:45.988Z,97862.09
2023-03-12T05:18:31.150Z,97914.50
2023-03-12T05:21:19.096Z,97924.75
2023-03-12T05:24:04.541Z,97923.94
2023-03-12T05:26:50.239Z,97918.75
2023-03-12T05:29:39.159Z,97904.56
2023-03-12T05:32:25.150Z,97916.84
2023-03-12T05:35:11.307Z,97919.56
2023-03-12T05:37:58.153Z,97922.03
2023-03-12T05:40:44.040Z,97924.50
2023-03-12T05:43:29.391Z,97916.72
2023-03-12T05:46:15.456Z,97913.47
2023-03-12T05:49:00.868Z,97905.44
2023-03-12T05:51:48.941Z,97888.31
2023-03-12T05:54:34.113Z,97903.53
2023-03-12T05:57:22.294Z,97901.19
2023-03-12T06:00:08.648Z,97833.63
2023-03-12T06:03:08.438Z,97853.19
2023-03-12T06:05:54.063Z,97872.09
2023-03-12T06:08:41.291Z,97856.50
2023-03-12T06:11:27.233Z,97887.06
2023-03-12T06:14:12.834Z,97887.50
2023-03-12T06:16:58.321Z,97888.75
2023-03-12T06:19:43.863Z,97896.06
2023-03-12T06:22:28.980Z,97775.94
2023-03-12T06:25:14.471Z,97889.75
2023-03-12T06:27:59.943Z,97886.09
2023-03-12T06:30:45.476Z,97888.13
2023-03-12T06:33:31.356Z,97877.91
2023-03-12T06:36:17.522Z,97883.84
2023-03-12T06:39:03.721Z,97885.16
2023-03-12T06:41:48.899Z,97884.66
2023-03-12T06:44:34.508Z,97873.66
2023-03-12T06:47:19.707Z,97841.03
2023-03-12T06:50:05.523Z,97883.41
2023-03-12T06:52:51.134Z,97868.22
2023-03-12T06:55:36.155Z,97878.38
2023-03-12T06:58:21.361Z,97805.94
2023-03-12T07:01:06.589Z,97880.56
2023-03-12T07:03:52.139Z,97836.25
2023-03-12T07:06:37.792Z,97865.16
2023-03-12T07:09:23.965Z,97875.53
2023-03-12T07:12:09.631Z,97877.13
2023-03-12T07:14:55.262Z,97882.41
2023-03-12T07:17:43.607Z,97871.50
2023-03-12T07:20:29.286Z,97846.28
2023-03-12T07:23:14.714Z,97878.00
2023-03-12T07:26:00.035Z,97873.06
2023-03-12T07:28:45.718Z,97851.06
2023-03-12T07:31:31.300Z,97867.44
2023-03-12T07:34:16.579Z,97857.47
2023-03-12T07:37:01.800Z,97847.22
2023-03-12T07:39:47.513Z,97854.22
2023-03-12T07:42:33.229Z,97840.41
2023-03-12T07:45:18.943Z,97835.16
2023-03-12T07:48:05.018Z,97836.94
2023-03-12T07:50:50.872Z,97840.00
2023-03-12T07:53:36.177Z,97855.59
2023-03-12T07:56:21.529Z,97795.78
2023-03-12T07:59:07.422Z,97799.00
2023-03-12T08:01:52.925Z,97805.25
2023-03-12T08:04:38.689Z,97821.06
2023-03-12T08:07:23.819Z,97820.31
2023-03-12T08:10:10.137Z,97836.22
2023-03-12T08:12:55.550Z,97828.31
2023-03-12T08:15:40.811Z,97815.97
2023-03-12T08:18:26.202Z,97813.13
2023-03-12T08:21:11.733Z,97777.31
2023-03-12T08:23:56.931Z,97582.13
2023-03-12T08:26:42.186Z,97824.84
2023-03-12T08:29:27.804Z,97832.38
2023-03-12T08:32:13.294Z,97816.97
2023-03-12T08:34:59.943Z,97810.53
2023-03-12T08:37:45.399Z,97818.34
2023-03-12T08:40:31.331Z,97809.22
2023-03-12T08:43:16.919Z,97806.09
2023-03-12T08:46:03.175Z,97763.63
2023-03-12T08:48:48.617Z,97804.16
2023-03-12T08:51:33.652Z,97741.34
2023-03-12T08:54:20.769Z,97799.84
2023-03-12T08:57:06.306Z,97803.91
2023-03-12T08:59:51.534Z,97774.53
2023-03-12T09:02:37.835Z,97794.38
2023-03-12T09:05:25.238Z,97800.41
2023-03-12T09:08:11.702Z,97797.19
2023-03-12T09:10:57.243Z,97788.16
2023-03-12T09:14:33.450Z,97794.56
2023-03-12T09:16:50.216Z,97793.59
2023-03-12T09:19:35.529Z,97788.31
2023-03-12T09:22:21.505Z,97738.56
2023-03-12T09:25:08.921Z,97751.13
2023-03-12T09:27:54.197Z,97777.53
2023-03-12T09:30:40.368Z,97765.88
2023-03-12T09:33:25.892Z,97777.28
2023-03-12T09:36:11.471Z,97774.06
2023-03-12T09:38:56.764Z,97773.44
2023-03-12T09:41:45.798Z,97718.78
2023-03-12T09:44:39.792Z,97762.34
2023-03-12T09:47:46.510Z,97752.09
2023-03-12T09:50:37.592Z,97757.53
2023-03-12T09:53:48.312Z,97686.41
2023-03-12T09:56:34.472Z,97756.44
2023-03-12T09:59:19.870Z,97765.16
2023-03-12T10:02:26.590Z,97749.38
2023-03-12T10:05:36.676Z,97757.56
2023-03-12T10:08:27.310Z,97752.59
2023-03-12T10:11:45.441Z,97757.09
2023-03-12T10:14:42.580Z,97748.91
2023-03-12T10:17:49.492Z,97745.31
2023-03-12T10:20:59.378Z,97746.22
2023-03-12T10:23:52.182Z,97746.81
2023-03-12T10:26:40.320Z,97742.47
2023-03-12T10:29:31.493Z,97739.69
2023-03-12T10:32:22.761Z,97720.13
2023-03-12T10:35:23.186Z,97724.16
2023-03-12T10:38:26.364Z,97724.00
2023-03-12T10:41:16.943Z,97722.25
2023-03-12T10:44:08.545Z,97722.88
2023-03-12T10:47:15.524Z,97725.19
2023-03-12T10:50:20.568Z,97719.59
2023-03-12T10:53:22.151Z,97726.16
2023-03-12T10:56:13.619Z,97725.25
2023-03-12T10:58:59.311Z,97723.56
2023-03-12T11:01:49.839Z,97716.94
2023-03-12T11:04:35.213Z,97717.41
2023-03-12T11:07:20.582Z,97721.69
2023-03-12T11:10:05.790Z,97716.44
2023-03-12T11:12:56.251Z,97710.66
2023-03-12T11:15:43.382Z,97709.91
2023-03-12T11:18:31.541Z,97691.63
2023-03-12T11:21:18.205Z,97692.19
2023-03-12T11:24:05.518Z,97638.63
2023-03-12T11:26:57.226Z,97696.03
2023-03-12T11:29:49.306Z,97698.88
2023-03-12T11:32:39.538Z,97706.44
2023-03-12T11:35:41.261Z,97654.94
2023-03-12T11:38:34.866Z,97693.47
2023-03-12T11:41:27.143Z,97693.16
2023-03-12T11:44:48.821Z,97688.16
2023-03-12T11:47:46.353Z,97688.06
2023-03-12T11:51:05.725Z,97685.63
2023-03-12T11:53:53.780Z,97684.78
2023-03-12T11:56:45.158Z,97689.38
2023-03-12T12:00:02.298Z,97655.59
2023-03-12T12:03:24.745Z,97671.19
2023-03-12T12:06:16.133Z,97664.53
2023-03-12T12:09:28.471Z,97669.69
2023-03-12T12:12:51.671Z,97675.19
2023-03-12T12:15:48.070Z,97663.19
2023-03-12T12:19:07.128Z,97666.72
2023-03-12T12:21:55.521Z,97659.38
2023-03-12T12:24:47.046Z,97652.13
2023-03-12T12:27:41.573Z,97642.06
2023-03-12T12:30:57.490Z,97624.25
2023-03-12T12:33:50.599Z,97628.06
2023-03-12T12:36:36.630Z,97628.84
2023-03-12T12:39:40.081Z,97619.03
2023-03-12T12:42:31.691Z,97592.63
2023-03-12T12:45:17.483Z,97614.63
2023-03-12T12:48:29.321Z,97626.19
2023-03-12T12:51:19.511Z,97620.16
2023-03-12T12:54:12.763Z,97620.53
2023-03-12T12:57:15.509Z,97599.88
2023-03-12T13:00:25.380Z,97622.25
2023-03-12T13:03:23.652Z,97619.44
2023-03-12T13:06:09.052Z,97617.22
2023-03-12T13:08:54.510Z,97610.03
2023-03-12T13:11:49.411Z,97612.66
2023-03-12T13:14:38.808Z,97614.38
2023-03-12T13:17:55.959Z,97625.38
2023-03-12T13:21:01.591Z,97608.38
2023-03-12T13:24:03.004Z,97553.72
2023-03-12T13:27:02.615Z,97610.81
2023-03-12T13:29:48.379Z,97611.91
2023-03-12T13:32:59.568Z,97559.25
2023-03-12T13:36:10.425Z,97599.28
2023-03-12T13:39:30.780Z,97601.38
2023-03-12T13:42:25.218Z,97609.25
2023-03-12T13:45:26.096Z,97610.22
2023-03-12T13:48:16.220Z,97610.38
2023-03-12T13:51:16.508Z,97604.34
2023-03-12T13:54:03.555Z,97607.16
2023-03-12T13:57:04.447Z,97616.47
2023-03-12T13:59:51.347Z,97618.00
2023-03-12T14:02:43.757Z,97625.06
2023-03-12T14:05:30.762Z,97588.69
2023-03-12T14:08:34.552Z,97618.06
2023-03-12T14:11:31.727Z,97619.84
2023-03-12T14:14:32.994Z,97619.53
2023-03-12T14:17:25.530Z,97608.75
2023-03-12T14:20:20.353Z,97596.19
2023-03-12T14:23:09.691Z,97597.50
2023-03-12T14:26:02.317Z,97597.66
2023-03-12T14:28:57.684Z,97602.81
2023-03-12T14:31:43.945Z,97592.44
2023-03-12T14:34:38.639Z,97591.47
2023-03-12T14:37:32.582Z,97592.47
2023-03-12T14:40:41.828Z,97593.63
2023-03-12T14:43:35.148Z,97572.88
2023-03-12T14:46:23.293Z,97578.94
2023-03-12T14:49:19.288Z,97586.09
2023-03-12T14:52:04.858Z,97592.78
2023-03-12T14:54:54.317Z,97580.06
2023-03-12T14:57:39.457Z,97588.88
2023-03-12T15:00:27.472Z,97568.69
2023-03-12T15:03:16.486Z,97576.66
2023-03-12T15:06:01.715Z,97548.22
2023-03-12T15:08:47.309Z,97572.09
2023-03-12T15:11:35.860Z,97577.97
2023-03-12T15:14:23.484Z,97576.81
2023-03-12T15:17:17.545Z,97578.44
2023-03-12T15:20:07.135Z,97579.09
2023-03-12T15:22:54.057Z,97580.56
2023-03-12T15:25:39.580Z,97581.06
2023-03-12T15:28:27.233Z,97589.06
2023-03-12T15:31:15.819Z,97543.41
2023-03-12T15:34:04.720Z,97594.09
2023-03-12T15:36:50.211Z,97603.38
2023-03-12T15:39:38.244Z,97599.59
2023-03-12T15:42:25.995Z,97526.25
2023-03-12T15:45:29.611Z,97613.69
2023-03-12T15:48:21.329Z,97577.78
2023-03-12T15:51:30.821Z,97615.00
2023-03-12T15:54:16.156Z,97614.66
2023-03-12T15:57:22.143Z,97601.44
2023-03-12T16:00:10.381Z,97600.28
2023-03-12T16:02:57.281Z,97596.72
2023-03-12T16:05:43.278Z,97604.22
2023-03-12T16:08:56.762Z,97598.97
2023-03-12T16:11:43.838Z,97596.34
2023-03-12T16:14:34.948Z,97603.25
2023-03-12T16:17:21.437Z,97595.38
2023-03-12T16:20:09.446Z,97591.47
2023-03-12T16:22:55.906Z,97563.13
2023-03-12T16:25:45.961Z,97591.81
2023-03-12T16:28:33.886Z,97534.28
2023-03-12T16:31:19.078Z,97595.75
2023-03-12T16:34:04.655Z,97597.50
2023-03-12T16:36:50.274Z,97592.63
2023-03-12T16:39:35.918Z,97583.34
2023-03-12T16:42:21.366Z,97595.41
2023-03-12T16:45:10.157Z,97562.59
2023-03-12T16:48:00.228Z,97608.63
2023-03-12T16:50:51.414Z,97610.72
2023-03-12T16:53:36.694Z,97614.59
2023-03-12T16:56:24.486Z,97606.97
2023-03-12T16:59:28.273Z,97575.19
2023-03-12T17:02:18.611Z,97613.34
2023-03-12T17:05:04.334Z,97597.50
2023-03-12T17:07:51.023Z,97609.25
2023-03-12T17:10:36.446Z,97531.97
2023-03-12T17:13:25.676Z,97609.72
2023-03-12T17:16:12.749Z,97543.03
2023-03-12T17:18:58.098Z,97614.75
2023-03-12T17:21:44.570Z,97610.03
2023-03-12T17:24:30.013Z,97605.31
2023-03-12T17:27:15.626Z,97613.00
2023-03-12T17:30:01.594Z,97611.34
2023-03-12T17:32:46.701Z,97627.69
2023-03-12T17:35:32.430Z,97623.09
2023-03-12T17:38:17.613Z,97618.03
2023-03-12T17:41:04.782Z,97617.19
2023-03-12T17:43:51.272Z,97612.31
2023-03-12T17:46:36.896Z,97613.09
2023-03-12T17:49:22.429Z,97623.19
2023-03-12T17:52:08.183Z,97573.97
2023-03-12T17:54:53.575Z,97539.34
2023-03-12T17:57:39.446Z,97608.88
2023-03-12T18:00:24.955Z,97613.22
2023-03-12T18:03:10.600Z,97613.09
2023-03-12T18:05:55.997Z,97626.41
2023-03-12T18:08:41.280Z,97630.19
2023-03-12T18:11:26.654Z,97630.53
2023-03-12T18:14:11.860Z,97637.34
2023-03-12T18:16:57.319Z,97641.25
2023-03-12T18:19:42.663Z,97626.06
2023-03-12T18:22:28.162Z,97628.53
2023-03-12T18:25:14.420Z,97622.78
2023-03-12T18:27:59.698Z,97622.25
2023-03-12T18:30:46.051Z,97621.63
2023-03-12T18:33:31.298Z,97619.94
2023-03-12T18:36:16.577Z,97568.69
2023-03-12T18:39:01.959Z,97617.75
2023-03-12T18:41:48.182Z,97627.00
2023-03-12T18:44:33.364Z,97618.88
2023-03-12T18:47:19.263Z,97626.69
2023-03-12T18:50:07.912Z,97632.91
2023-03-12T18:52:53.299Z,97628.94
2023-03-12T18:55:38.427Z,97637.75
2023-03-12T18:58:25.925Z,97640.50
2023-03-12T19:01:11.413Z,97633.78
2023-03-12T19:03:57.807Z,97638.44
2023-03-12T19:06:51.213Z,97616.25
2023-03-12T19:09:37.087Z,97625.47
2023-03-12T19:12:22.399Z,97597.63
2023-03-12T19:15:08.273Z,97625.69
2023-03-12T19:17:53.782Z,97631.84
2023-03-12T19:20:39.267Z,97631.09
2023-03-12T19:23:24.921Z,97631.19
2023-03-12T19:26:10.881Z,97630.25
2023-03-12T19:28:56.148Z,97627.75
2023-03-12T19:31:43.591Z,97605.00
2023-03-12T19:34:29.331Z,97631.19
2023-03-12T19:37:17.768Z,97643.09
2023-03-12T19:40:04.030Z,97643.66
2023-03-12T19:42:50.944Z,97639.59
2023-03-12T19:45:36.776Z,97645.41
2023-03-12T19:48:23.340Z,97653.78
2023-03-12T19:51:10.790Z,97637.88
2023-03-12T19:53:56.006Z,97651.22
2023-03-12T19:56:41.377Z,97656.94
2023-03-12T19:59:26.597Z,97656.97
2023-03-12T20:02:14.639Z,97646.59
2023-03-12T20:05:01.467Z,97646.97
2023-03-12T20:07:47.207Z,97661.28
2023-03-12T20:10:32.699Z,97661.16
2023-03-12T20:13:17.972Z,97654.97
2023-03-12T20:16:04.345Z,97658.47
2023-03-12T20:18:50.088Z,97653.34
2023-03-12T20:21:35.204Z,97653.63
2023-03-12T20:24:20.429Z,97655.38
2023-03-12T20:27:06.628Z,97654.91
2023-03-12T20:29:51.819Z,97643.00
2023-03-12T20:32:37.636Z,97623.75
2023-03-12T20:35:23.324Z,97640.72
2023-03-12T20:38:09.695Z,97634.75
2023-03-12T20:40:55.108Z,97624.81
2023-03-12T20:43:41.526Z,97617.97
2023-03-12T20:46:27.181Z,97608.16
2023-03-12T20:49:13.122Z,97611.34
2023-03-12T20:51:58.630Z,97612.19
2023-03-12T20:54:44.169Z,97600.06
2023-03-12T20:57:29.315Z,97600.63
2023-03-12T21:00:14.978Z,97597.34
2023-03-12T21:03:00.183Z,97593.28
2023-03-12T21:05:56.472Z,97581.78
2023-03-12T21:08:41.649Z,97589.03
2023-03-12T21:11:26.890Z,97575.41
2023-03-12T21:14:12.381Z,97589.19
2023-03-12T21:16:57.678Z,97599.06
2023-03-12T21:19:43.217Z,97594.91
2023-03-12T21:22:32.041Z,97593.28
2023-03-12T21:25:17.554Z,97593.09
2023-03-12T21:28:04.927Z,97593.28
2023-03-12T21:30:50.392Z,97554.78
2023-03-12T21:33:36.163Z,97597.97
2023-03-12T21:36:21.667Z,97568.59
2023-03-12T21:39:07.189Z,97587.84
2023-03-12T21:41:52.546Z,97590.94
2023-03-12T21:44:38.448Z,97595.53
2023-03-12T21:47:23.889Z,97592.66
2023-03-12T21:50:10.721Z,97588.00
2023-03-12T21:52:55.773Z,97587.47
2023-03-12T21:55:41.357Z,97583.88
2023-03-12T21:58:28.035Z,97587.97
2023-03-12T22:01:17.837Z,97531.13
2023-03-12T22:04:03.129Z,97548.16
2023-03-12T22:06:48.421Z,97592.25
2023-03-12T22:09:33.730Z,97583.47
2023-03-12T22:12:19.098Z,97575.13
2023-03-12T22:15:06.715Z,97580.88
2023-03-12T22:17:52.145Z,97580.34
2023-03-12T22:20:37.368Z,97581.34
2023-03-12T22:23:23.972Z,97581.47
2023-03-12T22:26:09.340Z,97586.34
2023-03-12T22:28:56.651Z,97577.63
2023-03-12T22:31:41.668Z,97556.97
2023-03-12T22:34:26.993Z,97569.97
2023-03-12T22:37:12.182Z,97567.00
2023-03-12T22:39:57.349Z,97567.50
2023-03-12T22:42:49.297Z,97560.19
2023-03-12T22:45:35.156Z,97558.00
2023-03-12T22:48:20.560Z,97562.50
2023-03-12T22:51:06.369Z,97553.88
2023-03-12T22:53:53.043Z,97537.88
2023-03-12T22:56:38.455Z,97547.47
2023-03-12T22:59:23.754Z,97534.25
2023-03-12T23:02:09.245Z,97536.00
2023-03-12T23:04:54.391Z,97534.16
2023-03-12T23:07:39.755Z,97527.13
2023-03-12T23:10:25.371Z,97523.25
2023-03-12T23:13:10.731Z,97517.00
2023-03-12T23:16:01.639Z,97516.78
2023-03-12T23:18:48.118Z,97507.38
2023-03-12T23:21:33.398Z,97512.25
2023-03-12T23:24:18.836Z,97510.75
2023-03-12T23:27:04.372Z,97509.06
2023-03-12T23:29:50.073Z,97503.88
2023-03-12T23:32:35.457Z,97491.34
2023-03-12T23:35:20.836Z,97487.34
2023-03-12T23:38:06.489Z,97415.09
2023-03-12T23:40:52.474Z,97486.91
2023-03-12T23:43:38.149Z,97488.78
2023-03-12T23:46:23.672Z,97473.91
2023-03-12T23:49:08.888Z,97481.81
2023-03-12T23:51:54.103Z,97472.31
2023-03-12T23:54:39.704Z,97474.78
2023-03-12T23:57:24.858Z,97476.66
